sensor_id;sensor_type;location;lat;lon;timestamp;temperature;humidity
23783;DHT22;12071;50.850;4.446;2023-04-07T00:02:04;10.00;1.00
23783;DHT22;12071;50.850;4.446;2023-04-07T00:04:30;10.00;99.90
23783;DHT22;12071;50.850;4.446;2023-04-07T00:06:56;10.00;99.90
23783;DHT22;12071;50.850;4.446;2023-04-07T00:09:21;9.80;99.90
23783;DHT22;12071;50.850;4.446;2023-04-07T00:11:47;9.60;1.00
23783;DHT22;12071;50.850;4.446;2023-04-07T00:14:13;9.50;1.00
23783;DHT22;12071;50.850;4.446;2023-04-07T00:16:38;9.50;1.00
23783;DHT22;12071;50.850;4.446;2023-04-07T00:19:04;9.50;1.00
23783;DHT22;12071;50.850;4.446;2023-04-07T00:21:30;9.50;1.00
23783;DHT22;12071;50.850;4.446;2023-04-07T00:23:56;9.60;1.00
23783;DHT22;12071;50.850;4.446;2023-04-07T00:26:22;9.70;1.00
23783;DHT22;12071;50.850;4.446;2023-04-07T00:28:47;9.60;1.00
23783;DHT22;12071;50.850;4.446;2023-04-07T00:31:13;9.60;1.00
23783;DHT22;12071;50.850;4.446;2023-04-07T00:33:39;9.60;1.00
23783;DHT22;12071;50.850;4.446;2023-04-07T00:36:05;9.50;1.00
23783;DHT22;12071;50.850;4.446;2023-04-07T00:38:30;9.60;1.00
23783;DHT22;12071;50.850;4.446;2023-04-07T00:40:57;9.70;1.00
23783;DHT22;12071;50.850;4.446;2023-04-07T00:43:23;9.70;1.00
23783;DHT22;12071;50.850;4.446;2023-04-07T00:45:50;9.60;1.00
23783;DHT22;12071;50.850;4.446;2023-04-07T00:48:16;9.60;1.00
23783;DHT22;12071;50.850;4.446;2023-04-07T00:50:43;9.50;1.00
23783;DHT22;12071;50.850;4.446;2023-04-07T00:53:09;9.50;1.00
23783;DHT22;12071;50.850;4.446;2023-04-07T00:55:36;9.50;1.00
23783;DHT22;12071;50.850;4.446;2023-04-07T00:58:01;9.60;1.00
23783;DHT22;12071;50.850;4.446;2023-04-07T01:00:31;9.60;1.00
23783;DHT22;12071;50.850;4.446;2023-04-07T01:03:15;9.60;1.00
23783;DHT22;12071;50.850;4.446;2023-04-07T01:05:53;9.70;1.00
23783;DHT22;12071;50.850;4.446;2023-04-07T01:08:25;9.80;1.00
23783;DHT22;12071;50.850;4.446;2023-04-07T01:10:52;9.80;1.00
23783;DHT22;12071;50.850;4.446;2023-04-07T01:13:30;9.90;1.00
23783;DHT22;12071;50.850;4.446;2023-04-07T01:16:00;10.00;1.00
23783;DHT22;12071;50.850;4.446;2023-04-07T01:18:31;9.90;1.00
23783;DHT22;12071;50.850;4.446;2023-04-07T01:21:18;9.70;1.00
23783;DHT22;12071;50.850;4.446;2023-04-07T01:26:29;9.80;1.00
23783;DHT22;12071;50.850;4.446;2023-04-07T01:31:42;9.80;1.00
23783;DHT22;12071;50.850;4.446;2023-04-07T01:34:12;9.80;1.00
23783;DHT22;12071;50.850;4.446;2023-04-07T01:36:38;10.00;1.00
23783;DHT22;12071;50.850;4.446;2023-04-07T01:39:05;10.10;1.00
23783;DHT22;12071;50.850;4.446;2023-04-07T01:41:32;10.10;99.90
23783;DHT22;12071;50.850;4.446;2023-04-07T01:43:58;10.20;99.90
23783;DHT22;12071;50.850;4.446;2023-04-07T01:46:25;10.30;99.90
23783;DHT22;12071;50.850;4.446;2023-04-07T01:48:51;10.30;99.90
23783;DHT22;12071;50.850;4.446;2023-04-07T01:51:19;9.90;99.90
23783;DHT22;12071;50.850;4.446;2023-04-07T01:53:46;9.70;99.90
23783;DHT22;12071;50.850;4.446;2023-04-07T01:56:12;9.60;99.90
23783;DHT22;12071;50.850;4.446;2023-04-07T01:58:38;9.50;1.00
23783;DHT22;12071;50.850;4.446;2023-04-07T02:01:04;9.50;1.00
23783;DHT22;12071;50.850;4.446;2023-04-07T02:06:18;9.70;1.00
23783;DHT22;12071;50.850;4.446;2023-04-07T02:08:50;9.90;1.00
23783;DHT22;12071;50.850;4.446;2023-04-07T02:11:19;10.10;99.90
23783;DHT22;12071;50.850;4.446;2023-04-07T02:13:46;9.80;99.90
23783;DHT22;12071;50.850;4.446;2023-04-07T02:16:13;9.70;99.90
23783;DHT22;12071;50.850;4.446;2023-04-07T02:18:39;9.80;99.90
23783;DHT22;12071;50.850;4.446;2023-04-07T02:21:06;9.50;99.90
23783;DHT22;12071;50.850;4.446;2023-04-07T02:23:34;9.40;1.00
23783;DHT22;12071;50.850;4.446;2023-04-07T02:26:00;9.30;1.00
23783;DHT22;12071;50.850;4.446;2023-04-07T02:28:25;9.20;1.00
23783;DHT22;12071;50.850;4.446;2023-04-07T02:30:51;9.10;1.00
23783;DHT22;12071;50.850;4.446;2023-04-07T02:33:17;9.00;1.00
23783;DHT22;12071;50.850;4.446;2023-04-07T02:35:42;9.00;1.00
23783;DHT22;12071;50.850;4.446;2023-04-07T02:38:08;8.90;1.00
23783;DHT22;12071;50.850;4.446;2023-04-07T02:40:33;8.90;1.00
23783;DHT22;12071;50.850;4.446;2023-04-07T02:43:01;8.90;1.00
23783;DHT22;12071;50.850;4.446;2023-04-07T02:45:26;8.90;1.00
23783;DHT22;12071;50.850;4.446;2023-04-07T02:47:52;8.90;1.00
23783;DHT22;12071;50.850;4.446;2023-04-07T02:50:17;8.80;1.00
23783;DHT22;12071;50.850;4.446;2023-04-07T02:52:43;8.80;1.00
23783;DHT22;12071;50.850;4.446;2023-04-07T02:55:09;8.90;1.00
23783;DHT22;12071;50.850;4.446;2023-04-07T02:57:34;8.80;1.00
23783;DHT22;12071;50.850;4.446;2023-04-07T03:00:00;8.80;1.00
23783;DHT22;12071;50.850;4.446;2023-04-07T03:02:26;8.80;1.00
23783;DHT22;12071;50.850;4.446;2023-04-07T03:04:51;8.80;1.00
23783;DHT22;12071;50.850;4.446;2023-04-07T03:07:19;8.80;1.00
23783;DHT22;12071;50.850;4.446;2023-04-07T03:09:45;8.80;1.00
23783;DHT22;12071;50.850;4.446;2023-04-07T03:12:11;8.80;1.00
23783;DHT22;12071;50.850;4.446;2023-04-07T03:14:36;8.80;1.00
23783;DHT22;12071;50.850;4.446;2023-04-07T03:17:03;8.80;1.00
23783;DHT22;12071;50.850;4.446;2023-04-07T03:19:28;8.90;1.00
23783;DHT22;12071;50.850;4.446;2023-04-07T03:21:54;9.00;1.00
23783;DHT22;12071;50.850;4.446;2023-04-07T03:24:20;8.90;1.00
23783;DHT22;12071;50.850;4.446;2023-04-07T03:26:46;8.90;1.00
23783;DHT22;12071;50.850;4.446;2023-04-07T03:29:11;8.90;1.00
23783;DHT22;12071;50.850;4.446;2023-04-07T03:31:37;8.90;1.00
23783;DHT22;12071;50.850;4.446;2023-04-07T03:34:03;8.80;1.00
23783;DHT22;12071;50.850;4.446;2023-04-07T03:36:29;8.80;1.00
23783;DHT22;12071;50.850;4.446;2023-04-07T03:38:56;8.80;1.00
23783;DHT22;12071;50.850;4.446;2023-04-07T03:41:22;8.80;1.00
23783;DHT22;12071;50.850;4.446;2023-04-07T03:43:47;8.70;1.00
23783;DHT22;12071;50.850;4.446;2023-04-07T03:46:14;8.80;1.00
23783;DHT22;12071;50.850;4.446;2023-04-07T03:48:39;8.80;1.00
23783;DHT22;12071;50.850;4.446;2023-04-07T03:51:05;8.70;1.00
23783;DHT22;12071;50.850;4.446;2023-04-07T03:53:31;8.80;1.00
23783;DHT22;12071;50.850;4.446;2023-04-07T03:55:57;8.90;1.00
23783;DHT22;12071;50.850;4.446;2023-04-07T03:58:23;8.80;1.00
23783;DHT22;12071;50.850;4.446;2023-04-07T04:00:48;8.80;1.00
23783;DHT22;12071;50.850;4.446;2023-04-07T04:03:14;8.70;1.00
23783;DHT22;12071;50.850;4.446;2023-04-07T04:05:40;8.70;1.00
23783;DHT22;12071;50.850;4.446;2023-04-07T04:08:06;8.80;1.00
23783;DHT22;12071;50.850;4.446;2023-04-07T04:10:31;8.80;1.00
23783;DHT22;12071;50.850;4.446;2023-04-07T04:12:57;8.70;1.00
23783;DHT22;12071;50.850;4.446;2023-04-07T04:15:25;8.70;1.00
23783;DHT22;12071;50.850;4.446;2023-04-07T04:17:51;8.70;1.00
23783;DHT22;12071;50.850;4.446;2023-04-07T04:20:17;8.70;1.00
23783;DHT22;12071;50.850;4.446;2023-04-07T04:22:42;8.90;1.00
23783;DHT22;12071;50.850;4.446;2023-04-07T04:25:08;8.80;1.00
23783;DHT22;12071;50.850;4.446;2023-04-07T04:27:34;8.90;1.00
23783;DHT22;12071;50.850;4.446;2023-04-07T04:30:00;9.00;1.00
23783;DHT22;12071;50.850;4.446;2023-04-07T04:32:25;9.00;1.00
23783;DHT22;12071;50.850;4.446;2023-04-07T04:34:51;8.90;1.00
23783;DHT22;12071;50.850;4.446;2023-04-07T04:37:16;8.90;1.00
23783;DHT22;12071;50.850;4.446;2023-04-07T04:39:42;9.00;1.00
23783;DHT22;12071;50.850;4.446;2023-04-07T04:42:07;9.00;1.00
23783;DHT22;12071;50.850;4.446;2023-04-07T04:44:33;9.00;1.00
23783;DHT22;12071;50.850;4.446;2023-04-07T04:46:59;9.00;1.00
23783;DHT22;12071;50.850;4.446;2023-04-07T04:49:24;9.10;1.00
23783;DHT22;12071;50.850;4.446;2023-04-07T04:51:50;9.00;1.00
23783;DHT22;12071;50.850;4.446;2023-04-07T04:54:17;9.00;1.00
23783;DHT22;12071;50.850;4.446;2023-04-07T04:56:43;8.90;1.00
23783;DHT22;12071;50.850;4.446;2023-04-07T04:59:09;8.80;1.00
23783;DHT22;12071;50.850;4.446;2023-04-07T05:01:34;9.00;1.00
23783;DHT22;12071;50.850;4.446;2023-04-07T05:04:00;8.90;1.00
23783;DHT22;12071;50.850;4.446;2023-04-07T05:06:25;8.80;1.00
23783;DHT22;12071;50.850;4.446;2023-04-07T05:08:52;8.70;1.00
23783;DHT22;12071;50.850;4.446;2023-04-07T05:11:17;8.70;1.00
23783;DHT22;12071;50.850;4.446;2023-04-07T05:13:43;8.60;1.00
23783;DHT22;12071;50.850;4.446;2023-04-07T05:16:09;8.60;1.00
23783;DHT22;12071;50.850;4.446;2023-04-07T05:18:34;8.60;1.00
23783;DHT22;12071;50.850;4.446;2023-04-07T05:21:00;8.60;1.00
23783;DHT22;12071;50.850;4.446;2023-04-07T05:23:26;8.60;1.00
23783;DHT22;12071;50.850;4.446;2023-04-07T05:25:52;8.60;1.00
23783;DHT22;12071;50.850;4.446;2023-04-07T05:28:18;8.60;1.00
23783;DHT22;12071;50.850;4.446;2023-04-07T05:30:43;8.60;1.00
23783;DHT22;12071;50.850;4.446;2023-04-07T05:33:09;8.50;1.00
23783;DHT22;12071;50.850;4.446;2023-04-07T05:35:35;8.50;1.00
23783;DHT22;12071;50.850;4.446;2023-04-07T05:38:01;8.70;1.00
23783;DHT22;12071;50.850;4.446;2023-04-07T05:40:27;8.60;1.00
23783;DHT22;12071;50.850;4.446;2023-04-07T05:42:54;8.60;1.00
23783;DHT22;12071;50.850;4.446;2023-04-07T05:45:20;8.80;1.00
23783;DHT22;12071;50.850;4.446;2023-04-07T05:47:45;8.70;1.00
23783;DHT22;12071;50.850;4.446;2023-04-07T05:50:14;8.70;1.00
23783;DHT22;12071;50.850;4.446;2023-04-07T05:52:40;8.70;1.00
23783;DHT22;12071;50.850;4.446;2023-04-07T05:55:09;8.70;1.00
23783;DHT22;12071;50.850;4.446;2023-04-07T05:57:35;8.60;1.00
23783;DHT22;12071;50.850;4.446;2023-04-07T06:00:01;8.60;1.00
23783;DHT22;12071;50.850;4.446;2023-04-07T06:02:27;8.50;1.00
23783;DHT22;12071;50.850;4.446;2023-04-07T06:04:52;8.50;1.00
23783;DHT22;12071;50.850;4.446;2023-04-07T06:07:18;8.50;1.00
23783;DHT22;12071;50.850;4.446;2023-04-07T06:09:43;8.80;1.00
23783;DHT22;12071;50.850;4.446;2023-04-07T06:12:09;8.70;1.00
23783;DHT22;12071;50.850;4.446;2023-04-07T06:14:37;8.70;1.00
23783;DHT22;12071;50.850;4.446;2023-04-07T06:17:02;8.70;1.00
23783;DHT22;12071;50.850;4.446;2023-04-07T06:19:28;8.60;1.00
23783;DHT22;12071;50.850;4.446;2023-04-07T06:21:53;8.70;1.00
23783;DHT22;12071;50.850;4.446;2023-04-07T06:24:19;8.70;1.00
23783;DHT22;12071;50.850;4.446;2023-04-07T06:26:53;8.80;1.00
23783;DHT22;12071;50.850;4.446;2023-04-07T06:29:19;8.80;1.00
23783;DHT22;12071;50.850;4.446;2023-04-07T06:31:44;8.80;1.00
23783;DHT22;12071;50.850;4.446;2023-04-07T06:34:10;8.80;1.00
23783;DHT22;12071;50.850;4.446;2023-04-07T06:36:36;8.80;1.00
23783;DHT22;12071;50.850;4.446;2023-04-07T06:39:02;8.90;1.00
23783;DHT22;12071;50.850;4.446;2023-04-07T06:41:28;8.80;1.00
23783;DHT22;12071;50.850;4.446;2023-04-07T06:43:53;8.90;1.00
23783;DHT22;12071;50.850;4.446;2023-04-07T06:46:19;9.00;1.00
23783;DHT22;12071;50.850;4.446;2023-04-07T06:48:45;8.90;1.00
23783;DHT22;12071;50.850;4.446;2023-04-07T06:51:11;9.00;1.00
23783;DHT22;12071;50.850;4.446;2023-04-07T06:53:37;9.00;1.00
23783;DHT22;12071;50.850;4.446;2023-04-07T06:56:08;8.90;1.00
23783;DHT22;12071;50.850;4.446;2023-04-07T06:58:35;8.90;1.00
23783;DHT22;12071;50.850;4.446;2023-04-07T07:01:02;8.90;1.00
23783;DHT22;12071;50.850;4.446;2023-04-07T07:03:28;9.00;1.00
23783;DHT22;12071;50.850;4.446;2023-04-07T07:05:54;9.00;1.00
23783;DHT22;12071;50.850;4.446;2023-04-07T07:08:24;9.00;1.00
23783;DHT22;12071;50.850;4.446;2023-04-07T07:10:49;9.10;1.00
23783;DHT22;12071;50.850;4.446;2023-04-07T07:13:15;9.10;1.00
23783;DHT22;12071;50.850;4.446;2023-04-07T07:15:41;9.40;1.00
23783;DHT22;12071;50.850;4.446;2023-04-07T07:18:06;9.40;1.00
23783;DHT22;12071;50.850;4.446;2023-04-07T07:20:32;9.40;1.00
23783;DHT22;12071;50.850;4.446;2023-04-07T07:22:57;9.40;1.00
23783;DHT22;12071;50.850;4.446;2023-04-07T07:25:24;9.50;1.00
23783;DHT22;12071;50.850;4.446;2023-04-07T07:27:51;9.40;99.90
23783;DHT22;12071;50.850;4.446;2023-04-07T07:30:21;9.40;99.90
23783;DHT22;12071;50.850;4.446;2023-04-07T07:32:48;9.60;99.90
23783;DHT22;12071;50.850;4.446;2023-04-07T07:35:14;9.70;99.90
23783;DHT22;12071;50.850;4.446;2023-04-07T07:37:40;9.90;99.90
23783;DHT22;12071;50.850;4.446;2023-04-07T07:40:06;9.70;99.90
23783;DHT22;12071;50.850;4.446;2023-04-07T07:42:32;9.70;99.90
23783;DHT22;12071;50.850;4.446;2023-04-07T07:44:58;9.80;99.90
23783;DHT22;12071;50.850;4.446;2023-04-07T07:47:24;9.80;99.90
23783;DHT22;12071;50.850;4.446;2023-04-07T07:49:50;9.60;99.90
23783;DHT22;12071;50.850;4.446;2023-04-07T07:52:16;9.80;99.90
23783;DHT22;12071;50.850;4.446;2023-04-07T07:54:42;9.70;99.90
23783;DHT22;12071;50.850;4.446;2023-04-07T07:57:07;9.60;99.90
23783;DHT22;12071;50.850;4.446;2023-04-07T07:59:33;9.90;99.90
23783;DHT22;12071;50.850;4.446;2023-04-07T08:01:59;9.90;99.90
23783;DHT22;12071;50.850;4.446;2023-04-07T08:04:25;10.10;99.90
23783;DHT22;12071;50.850;4.446;2023-04-07T08:06:51;10.00;99.90
23783;DHT22;12071;50.850;4.446;2023-04-07T08:09:18;9.90;99.90
23783;DHT22;12071;50.850;4.446;2023-04-07T08:11:45;9.70;99.90
23783;DHT22;12071;50.850;4.446;2023-04-07T08:14:13;9.70;99.90
23783;DHT22;12071;50.850;4.446;2023-04-07T08:16:38;9.60;99.90
23783;DHT22;12071;50.850;4.446;2023-04-07T08:19:04;9.80;99.90
23783;DHT22;12071;50.850;4.446;2023-04-07T08:21:30;9.80;99.90
23783;DHT22;12071;50.850;4.446;2023-04-07T08:23:57;9.80;99.90
23783;DHT22;12071;50.850;4.446;2023-04-07T08:26:23;9.80;99.90
23783;DHT22;12071;50.850;4.446;2023-04-07T08:28:49;9.70;99.90
23783;DHT22;12071;50.850;4.446;2023-04-07T08:31:18;9.50;99.90
23783;DHT22;12071;50.850;4.446;2023-04-07T08:33:44;9.30;99.90
23783;DHT22;12071;50.850;4.446;2023-04-07T08:36:10;9.30;99.90
23783;DHT22;12071;50.850;4.446;2023-04-07T08:38:36;9.50;99.90
23783;DHT22;12071;50.850;4.446;2023-04-07T08:41:09;9.50;99.90
23783;DHT22;12071;50.850;4.446;2023-04-07T08:43:37;9.40;99.90
23783;DHT22;12071;50.850;4.446;2023-04-07T08:46:04;9.50;99.90
23783;DHT22;12071;50.850;4.446;2023-04-07T08:48:31;9.60;99.90
23783;DHT22;12071;50.850;4.446;2023-04-07T08:51:04;9.60;99.90
23783;DHT22;12071;50.850;4.446;2023-04-07T08:53:37;9.60;99.90
23783;DHT22;12071;50.850;4.446;2023-04-07T08:56:05;9.50;99.90
23783;DHT22;12071;50.850;4.446;2023-04-07T08:58:31;9.50;99.90
23783;DHT22;12071;50.850;4.446;2023-04-07T09:00:57;9.60;99.90
23783;DHT22;12071;50.850;4.446;2023-04-07T09:03:25;9.90;99.90
23783;DHT22;12071;50.850;4.446;2023-04-07T09:05:51;9.90;99.90
23783;DHT22;12071;50.850;4.446;2023-04-07T09:08:17;10.00;99.90
23783;DHT22;12071;50.850;4.446;2023-04-07T09:10:42;10.30;99.90
23783;DHT22;12071;50.850;4.446;2023-04-07T09:13:08;10.50;90.60
23783;DHT22;12071;50.850;4.446;2023-04-07T09:15:34;10.80;1.00
23783;DHT22;12071;50.850;4.446;2023-04-07T09:18:00;11.10;1.00
23783;DHT22;12071;50.850;4.446;2023-04-07T09:20:25;11.20;1.00
23783;DHT22;12071;50.850;4.446;2023-04-07T09:22:51;11.30;1.00
23783;DHT22;12071;50.850;4.446;2023-04-07T09:25:19;10.90;99.90
23783;DHT22;12071;50.850;4.446;2023-04-07T09:27:58;10.80;99.90
23783;DHT22;12071;50.850;4.446;2023-04-07T09:30:24;10.90;99.90
23783;DHT22;12071;50.850;4.446;2023-04-07T09:32:50;10.70;99.90
23783;DHT22;12071;50.850;4.446;2023-04-07T09:35:16;10.70;99.90
23783;DHT22;12071;50.850;4.446;2023-04-07T09:37:42;10.80;99.90
23783;DHT22;12071;50.850;4.446;2023-04-07T09:40:08;10.90;99.90
23783;DHT22;12071;50.850;4.446;2023-04-07T09:42:34;11.10;99.90
23783;DHT22;12071;50.850;4.446;2023-04-07T09:45:02;11.50;1.00
23783;DHT22;12071;50.850;4.446;2023-04-07T09:47:30;11.60;1.00
23783;DHT22;12071;50.850;4.446;2023-04-07T09:49:56;11.80;1.00
23783;DHT22;12071;50.850;4.446;2023-04-07T09:52:24;12.00;99.90
23783;DHT22;12071;50.850;4.446;2023-04-07T09:54:50;11.90;1.00
23783;DHT22;12071;50.850;4.446;2023-04-07T09:57:17;11.80;99.90
23783;DHT22;12071;50.850;4.446;2023-04-07T09:59:43;11.70;99.90
23783;DHT22;12071;50.850;4.446;2023-04-07T10:02:10;11.50;99.90
23783;DHT22;12071;50.850;4.446;2023-04-07T10:04:36;12.00;1.00
23783;DHT22;12071;50.850;4.446;2023-04-07T10:07:04;11.90;99.90
23783;DHT22;12071;50.850;4.446;2023-04-07T10:09:30;12.20;99.90
23783;DHT22;12071;50.850;4.446;2023-04-07T10:11:57;12.70;99.90
23783;DHT22;12071;50.850;4.446;2023-04-07T10:14:29;12.30;99.90
23783;DHT22;12071;50.850;4.446;2023-04-07T10:16:56;12.10;99.90
23783;DHT22;12071;50.850;4.446;2023-04-07T10:19:22;12.20;99.90
23783;DHT22;12071;50.850;4.446;2023-04-07T10:21:51;12.10;99.90
23783;DHT22;12071;50.850;4.446;2023-04-07T10:27:04;11.60;99.90
23783;DHT22;12071;50.850;4.446;2023-04-07T10:29:36;11.60;1.00
23783;DHT22;12071;50.850;4.446;2023-04-07T10:32:04;12.10;99.90
23783;DHT22;12071;50.850;4.446;2023-04-07T10:37:24;12.80;1.00
23783;DHT22;12071;50.850;4.446;2023-04-07T10:42:44;12.50;99.90
23783;DHT22;12071;50.850;4.446;2023-04-07T10:45:11;12.40;99.90
23783;DHT22;12071;50.850;4.446;2023-04-07T10:48:10;11.80;1.00
23783;DHT22;12071;50.850;4.446;2023-04-07T10:50:37;11.30;1.00
23783;DHT22;12071;50.850;4.446;2023-04-07T10:53:10;11.10;99.90
23783;DHT22;12071;50.850;4.446;2023-04-07T10:58:22;10.90;1.00
23783;DHT22;12071;50.850;4.446;2023-04-07T11:03:30;11.00;99.90
23783;DHT22;12071;50.850;4.446;2023-04-07T11:06:04;11.40;99.90
23783;DHT22;12071;50.850;4.446;2023-04-07T11:08:41;11.30;1.00
23783;DHT22;12071;50.850;4.446;2023-04-07T11:11:08;11.30;1.00
23783;DHT22;12071;50.850;4.446;2023-04-07T11:13:48;11.50;99.90
23783;DHT22;12071;50.850;4.446;2023-04-07T11:16:15;11.90;7.10
23783;DHT22;12071;50.850;4.446;2023-04-07T11:18:43;11.90;99.90
23783;DHT22;12071;50.850;4.446;2023-04-07T11:21:08;12.00;99.90
23783;DHT22;12071;50.850;4.446;2023-04-07T11:23:45;12.10;84.70
23783;DHT22;12071;50.850;4.446;2023-04-07T11:26:13;12.20;99.90
23783;DHT22;12071;50.850;4.446;2023-04-07T11:29:05;12.20;1.00
23783;DHT22;12071;50.850;4.446;2023-04-07T11:31:30;12.50;1.80
23783;DHT22;12071;50.850;4.446;2023-04-07T11:34:01;12.60;1.00
23783;DHT22;12071;50.850;4.446;2023-04-07T11:36:37;12.10;1.00
23783;DHT22;12071;50.850;4.446;2023-04-07T11:39:04;11.80;93.30
23783;DHT22;12071;50.850;4.446;2023-04-07T11:41:31;11.90;1.00
23783;DHT22;12071;50.850;4.446;2023-04-07T11:44:10;11.60;99.90
23783;DHT22;12071;50.850;4.446;2023-04-07T11:46:51;11.30;1.00
23783;DHT22;12071;50.850;4.446;2023-04-07T11:49:17;11.20;1.00
23783;DHT22;12071;50.850;4.446;2023-04-07T11:51:43;11.20;99.90
23783;DHT22;12071;50.850;4.446;2023-04-07T11:54:09;11.10;96.50
23783;DHT22;12071;50.850;4.446;2023-04-07T11:56:45;11.40;99.90
23783;DHT22;12071;50.850;4.446;2023-04-07T11:59:23;11.40;99.90
23783;DHT22;12071;50.850;4.446;2023-04-07T12:01:50;11.60;99.90
23783;DHT22;12071;50.850;4.446;2023-04-07T12:04:17;11.90;99.90
23783;DHT22;12071;50.850;4.446;2023-04-07T12:06:44;12.30;99.90
23783;DHT22;12071;50.850;4.446;2023-04-07T12:09:30;12.20;99.90
23783;DHT22;12071;50.850;4.446;2023-04-07T12:11:57;12.20;1.00
23783;DHT22;12071;50.850;4.446;2023-04-07T12:14:24;12.40;1.00
23783;DHT22;12071;50.850;4.446;2023-04-07T12:16:50;12.40;1.00
23783;DHT22;12071;50.850;4.446;2023-04-07T12:19:15;12.40;1.00
23783;DHT22;12071;50.850;4.446;2023-04-07T12:21:41;12.30;99.90
23783;DHT22;12071;50.850;4.446;2023-04-07T12:24:08;12.00;99.90
23783;DHT22;12071;50.850;4.446;2023-04-07T12:26:33;11.60;99.90
23783;DHT22;12071;50.850;4.446;2023-04-07T12:28:59;11.60;99.90
23783;DHT22;12071;50.850;4.446;2023-04-07T12:31:32;11.60;1.00
23783;DHT22;12071;50.850;4.446;2023-04-07T12:33:58;11.40;1.00
23783;DHT22;12071;50.850;4.446;2023-04-07T12:36:25;11.60;55.40
23783;DHT22;12071;50.850;4.446;2023-04-07T12:38:52;11.70;97.30
23783;DHT22;12071;50.850;4.446;2023-04-07T12:41:19;12.00;1.00
23783;DHT22;12071;50.850;4.446;2023-04-07T12:43:44;11.90;99.90
23783;DHT22;12071;50.850;4.446;2023-04-07T12:46:10;11.90;1.00
23783;DHT22;12071;50.850;4.446;2023-04-07T12:48:36;12.00;99.90
23783;DHT22;12071;50.850;4.446;2023-04-07T12:51:01;12.30;99.90
23783;DHT22;12071;50.850;4.446;2023-04-07T12:53:27;12.00;99.90
23783;DHT22;12071;50.850;4.446;2023-04-07T12:55:53;12.10;6.70
23783;DHT22;12071;50.850;4.446;2023-04-07T12:58:19;12.10;1.00
23783;DHT22;12071;50.850;4.446;2023-04-07T13:00:45;12.10;99.90
23783;DHT22;12071;50.850;4.446;2023-04-07T13:03:13;12.10;1.00
23783;DHT22;12071;50.850;4.446;2023-04-07T13:05:39;12.40;99.90
23783;DHT22;12071;50.850;4.446;2023-04-07T13:08:04;12.40;1.00
23783;DHT22;12071;50.850;4.446;2023-04-07T13:10:31;12.20;99.90
23783;DHT22;12071;50.850;4.446;2023-04-07T13:12:56;11.90;1.00
23783;DHT22;12071;50.850;4.446;2023-04-07T13:15:22;11.70;15.60
23783;DHT22;12071;50.850;4.446;2023-04-07T13:17:48;11.60;99.90
23783;DHT22;12071;50.850;4.446;2023-04-07T13:20:13;11.60;99.90
23783;DHT22;12071;50.850;4.446;2023-04-07T13:22:39;11.70;30.30
23783;DHT22;12071;50.850;4.446;2023-04-07T13:25:05;11.50;1.00
23783;DHT22;12071;50.850;4.446;2023-04-07T13:27:30;11.40;99.90
23783;DHT22;12071;50.850;4.446;2023-04-07T13:29:56;11.30;99.90
23783;DHT22;12071;50.850;4.446;2023-04-07T13:32:21;11.30;99.90
23783;DHT22;12071;50.850;4.446;2023-04-07T13:34:47;11.10;99.90
23783;DHT22;12071;50.850;4.446;2023-04-07T13:37:13;11.10;99.90
23783;DHT22;12071;50.850;4.446;2023-04-07T13:39:40;11.30;1.00
23783;DHT22;12071;50.850;4.446;2023-04-07T13:42:06;11.30;99.90
23783;DHT22;12071;50.850;4.446;2023-04-07T13:44:33;11.50;41.80
23783;DHT22;12071;50.850;4.446;2023-04-07T13:47:01;11.50;99.90
23783;DHT22;12071;50.850;4.446;2023-04-07T13:49:27;11.60;99.90
23783;DHT22;12071;50.850;4.446;2023-04-07T13:51:53;11.40;99.90
23783;DHT22;12071;50.850;4.446;2023-04-07T13:54:19;11.30;99.90
23783;DHT22;12071;50.850;4.446;2023-04-07T13:56:45;11.40;99.90
23783;DHT22;12071;50.850;4.446;2023-04-07T13:59:13;11.60;1.00
23783;DHT22;12071;50.850;4.446;2023-04-07T14:01:39;11.80;1.00
23783;DHT22;12071;50.850;4.446;2023-04-07T14:04:06;12.00;99.90
23783;DHT22;12071;50.850;4.446;2023-04-07T14:06:32;12.00;99.90
23783;DHT22;12071;50.850;4.446;2023-04-07T14:08:57;12.20;96.50
23783;DHT22;12071;50.850;4.446;2023-04-07T14:11:23;12.20;93.10
23783;DHT22;12071;50.850;4.446;2023-04-07T14:13:49;12.40;99.90
23783;DHT22;12071;50.850;4.446;2023-04-07T14:16:16;12.30;1.00
23783;DHT22;12071;50.850;4.446;2023-04-07T14:18:42;12.50;1.00
23783;DHT22;12071;50.850;4.446;2023-04-07T14:21:08;12.10;1.00
23783;DHT22;12071;50.850;4.446;2023-04-07T14:23:34;11.90;99.90
23783;DHT22;12071;50.850;4.446;2023-04-07T14:26:00;11.80;99.90
23783;DHT22;12071;50.850;4.446;2023-04-07T14:28:27;11.50;1.00
23783;DHT22;12071;50.850;4.446;2023-04-07T14:30:53;11.40;99.90
23783;DHT22;12071;50.850;4.446;2023-04-07T14:33:19;11.70;1.00
23783;DHT22;12071;50.850;4.446;2023-04-07T14:35:45;11.80;99.90
23783;DHT22;12071;50.850;4.446;2023-04-07T14:38:11;11.70;1.00
23783;DHT22;12071;50.850;4.446;2023-04-07T14:40:36;11.70;26.40
23783;DHT22;12071;50.850;4.446;2023-04-07T14:43:02;11.70;1.00
23783;DHT22;12071;50.850;4.446;2023-04-07T14:45:28;11.40;1.00
23783;DHT22;12071;50.850;4.446;2023-04-07T14:47:54;11.40;99.90
23783;DHT22;12071;50.850;4.446;2023-04-07T14:50:20;11.70;99.90
23783;DHT22;12071;50.850;4.446;2023-04-07T14:52:46;11.80;99.90
23783;DHT22;12071;50.850;4.446;2023-04-07T14:55:12;12.10;1.00
23783;DHT22;12071;50.850;4.446;2023-04-07T14:57:37;12.00;1.00
23783;DHT22;12071;50.850;4.446;2023-04-07T15:00:04;12.00;99.90
23783;DHT22;12071;50.850;4.446;2023-04-07T15:02:32;11.90;99.90
23783;DHT22;12071;50.850;4.446;2023-04-07T15:04:58;12.20;99.90
23783;DHT22;12071;50.850;4.446;2023-04-07T15:07:24;12.80;99.90
23783;DHT22;12071;50.850;4.446;2023-04-07T15:09:50;13.90;1.00
23783;DHT22;12071;50.850;4.446;2023-04-07T15:12:16;14.90;1.00
23783;DHT22;12071;50.850;4.446;2023-04-07T15:14:42;15.00;1.00
23783;DHT22;12071;50.850;4.446;2023-04-07T15:17:08;15.70;99.90
23783;DHT22;12071;50.850;4.446;2023-04-07T15:19:34;16.20;1.00
23783;DHT22;12071;50.850;4.446;2023-04-07T15:21:59;16.90;99.90
23783;DHT22;12071;50.850;4.446;2023-04-07T15:24:25;16.90;99.90
23783;DHT22;12071;50.850;4.446;2023-04-07T15:26:50;17.90;99.90
23783;DHT22;12071;50.850;4.446;2023-04-07T15:29:16;18.10;99.90
23783;DHT22;12071;50.850;4.446;2023-04-07T15:31:42;18.00;1.00
23783;DHT22;12071;50.850;4.446;2023-04-07T15:34:07;17.70;1.00
23783;DHT22;12071;50.850;4.446;2023-04-07T15:36:33;17.00;1.00
23783;DHT22;12071;50.850;4.446;2023-04-07T15:39:02;15.80;1.00
23783;DHT22;12071;50.850;4.446;2023-04-07T15:41:28;14.60;7.60
23783;DHT22;12071;50.850;4.446;2023-04-07T15:43:54;13.80;76.20
23783;DHT22;12071;50.850;4.446;2023-04-07T15:46:20;13.30;99.90
23783;DHT22;12071;50.850;4.446;2023-04-07T15:48:46;13.00;99.90
23783;DHT22;12071;50.850;4.446;2023-04-07T15:51:12;13.00;99.90
23783;DHT22;12071;50.850;4.446;2023-04-07T15:53:38;12.80;99.90
23783;DHT22;12071;50.850;4.446;2023-04-07T15:56:03;12.70;1.00
23783;DHT22;12071;50.850;4.446;2023-04-07T15:58:30;12.70;1.00
23783;DHT22;12071;50.850;4.446;2023-04-07T16:00:56;12.50;1.00
23783;DHT22;12071;50.850;4.446;2023-04-07T16:03:22;12.30;1.00
23783;DHT22;12071;50.850;4.446;2023-04-07T16:05:47;12.30;99.90
23783;DHT22;12071;50.850;4.446;2023-04-07T16:08:15;12.40;99.90